createdAt,value
2022-09-28T00:01:22.782Z,17.07
2022-09-28T00:03:59.340Z,17.10
2022-09-28T00:06:33.259Z,17.15
2022-09-28T00:09:06.374Z,17.19
2022-09-28T00:11:39.632Z,17.21
2022-09-28T00:14:14.003Z,17.13
2022-09-28T00:16:47.484Z,17.17
2022-09-28T00:19:20.537Z,17.17
2022-09-28T00:21:54.013Z,17.11
2022-09-28T00:24:28.138Z,17.11
2022-09-28T00:27:03.244Z,17.15
2022-09-28T00:29:37.814Z,17.14
2022-09-28T00:32:16.245Z,17.15
2022-09-28T00:34:49.756Z,17.17
2022-09-28T00:37:22.896Z,17.14
2022-09-28T00:39:56.420Z,17.21
2022-09-28T00:42:29.601Z,17.21
2022-09-28T00:45:02.643Z,17.22
2022-09-28T00:47:50.562Z,17.18
2022-09-28T00:50:38.145Z,17.15
2022-09-28T00:53:21.003Z,17.15
2022-09-28T00:56:05.900Z,17.03
2022-09-28T00:58:46.381Z,17.00
2022-09-28T01:01:19.748Z,16.90
2022-09-28T01:03:55.619Z,16.89
2022-09-28T01:06:34.210Z,16.77
2022-09-28T01:09:12.896Z,16.62
2022-09-28T01:11:46.431Z,16.62
2022-09-28T01:14:21.231Z,16.58
2022-09-28T01:17:13.841Z,16.53
2022-09-28T01:20:11.446Z,16.47
2022-09-28T01:23:17.153Z,16.41
2022-09-28T01:26:14.896Z,16.37
2022-09-28T01:28:55.244Z,16.33
2022-09-28T01:31:35.347Z,16.28
2022-09-28T01:34:18.707Z,16.16
2022-09-28T01:36:55.980Z,16.10
2022-09-28T01:39:40.565Z,16.14
2022-09-28T01:42:22.071Z,16.13
2022-09-28T01:44:58.959Z,16.15
2022-09-28T01:47:37.368Z,16.13
2022-09-28T01:50:19.395Z,16.11
2022-09-28T01:52:58.151Z,16.09
2022-09-28T01:55:44.196Z,15.99
2022-09-28T01:58:48.143Z,16.02
2022-09-28T02:01:31.155Z,16.02
2022-09-28T02:04:17.078Z,15.95
2022-09-28T02:07:07.147Z,15.93
2022-09-28T02:09:51.302Z,15.93
2022-09-28T02:12:44.171Z,15.88
2022-09-28T02:15:32.385Z,15.84
2022-09-28T02:18:06.042Z,15.79
2022-09-28T02:20:41.438Z,15.74
2022-09-28T02:23:15.131Z,15.62
2022-09-28T02:25:55.569Z,15.55
2022-09-28T02:28:28.122Z,15.54
2022-09-28T02:31:01.150Z,15.43
2022-09-28T02:33:40.623Z,15.37
2022-09-28T02:36:14.193Z,15.31
2022-09-28T02:38:47.024Z,15.31
2022-09-28T02:41:30.239Z,15.26
2022-09-28T02:44:11.614Z,15.20
2022-09-28T02:46:57.154Z,15.14
2022-09-28T02:49:45.740Z,15.06
2022-09-28T02:52:53.731Z,15.01
2022-09-28T02:55:55.314Z,14.95
2022-09-28T02:58:35.538Z,14.82
2022-09-28T03:01:25.453Z,14.71
2022-09-28T03:04:16.507Z,14.65
2022-09-28T03:06:51.711Z,14.61
2022-09-28T03:09:38.420Z,14.49
2022-09-28T03:12:15.753Z,14.47
2022-09-28T03:14:49.037Z,14.58
2022-09-28T03:17:23.659Z,14.59
2022-09-28T03:19:56.464Z,14.61
2022-09-28T03:22:30.948Z,14.64
2022-09-28T03:25:03.989Z,14.61
2022-09-28T03:27:36.718Z,14.58
2022-09-28T03:30:10.230Z,14.70
2022-09-28T03:32:43.449Z,14.71
2022-09-28T03:35:16.552Z,14.88
2022-09-28T03:37:49.103Z,14.98
2022-09-28T03:40:21.584Z,15.07
2022-09-28T03:42:54.543Z,15.18
2022-09-28T03:45:27.368Z,15.29
2022-09-28T03:48:00.660Z,15.33
2022-09-28T03:50:33.893Z,15.46
2022-09-28T03:53:07.483Z,15.50
2022-09-28T03:55:43.116Z,15.48
2022-09-28T03:58:16.342Z,15.59
2022-09-28T04:00:50.388Z,15.65
2022-09-28T04:03:30.833Z,15.71
2022-09-28T04:06:04.479Z,15.79
2022-09-28T04:08:38.462Z,15.85
2022-09-28T04:11:12.260Z,15.85
2022-09-28T04:13:46.152Z,15.95
2022-09-28T04:16:20.026Z,16.00
2022-09-28T04:19:04.680Z,16.03
2022-09-28T04:21:54.232Z,16.14
2022-09-28T04:24:28.635Z,16.23
2022-09-28T04:27:23.373Z,16.28
2022-09-28T04:29:56.503Z,16.32
2022-09-28T04:32:29.231Z,16.39
2022-09-28T04:35:02.442Z,16.34
2022-09-28T04:37:35.911Z,16.43
2022-09-28T04:40:09.707Z,16.45
2022-09-28T04:42:43.369Z,16.47
2022-09-28T04:45:15.999Z,16.50
2022-09-28T04:47:50.909Z,16.49
2022-09-28T04:50:45.821Z,16.51
2022-09-28T04:53:26.081Z,16.53
2022-09-28T04:56:06.312Z,16.59
2022-09-28T04:58:39.826Z,16.66
2022-09-28T05:01:18.943Z,16.70
2022-09-28T05:04:03.569Z,16.72
2022-09-28T05:06:53.328Z,16.69
2022-09-28T05:09:26.067Z,16.76
2022-09-28T05:11:59.572Z,16.81
2022-09-28T05:14:32.351Z,16.87
2022-09-28T05:17:05.239Z,16.93
2022-09-28T05:20:03.221Z,17.00
2022-09-28T05:22:36.934Z,17.07
2022-09-28T05:25:11.453Z,17.06
2022-09-28T05:28:02.165Z,17.23
2022-09-28T05:30:48.420Z,17.38
2022-09-28T05:33:38.112Z,17.48
2022-09-28T05:36:20.391Z,17.66
2022-09-28T05:38:53.643Z,17.79
2022-09-28T05:41:26.970Z,17.83
2022-09-28T05:44:01.698Z,18.09
2022-09-28T05:46:36.378Z,18.33
2022-09-28T05:49:09.779Z,18.57
2022-09-28T05:51:43.501Z,18.81
2022-09-28T05:54:17.979Z,19.05
2022-09-28T05:56:54.301Z,19.27
2022-09-28T05:59:27.502Z,19.45
2022-09-28T06:02:00.890Z,19.55
2022-09-28T06:04:34.332Z,19.52
2022-09-28T06:07:07.961Z,19.43
2022-09-28T06:09:40.920Z,19.38
2022-09-28T06:12:17.184Z,19.31
2022-09-28T06:14:54.159Z,19.37
2022-09-28T06:17:28.349Z,19.40
2022-09-28T06:20:23.114Z,19.44
2022-09-28T06:23:14.790Z,19.55
2022-09-28T06:25:48.660Z,19.67
2022-09-28T06:28:22.667Z,19.74
2022-09-28T06:30:58.441Z,19.77
2022-09-28T06:33:32.002Z,19.89
2022-09-28T06:36:05.207Z,19.91
2022-09-28T06:38:39.054Z,19.95
2022-09-28T06:41:13.719Z,19.93
2022-09-28T06:43:49.580Z,19.93
2022-09-28T06:46:56.587Z,20.06
2022-09-28T06:49:57.447Z,20.14
2022-09-28T06:52:59.465Z,20.22
2022-09-28T06:55:54.613Z,20.08
2022-09-28T06:58:29.073Z,19.91
2022-09-28T07:01:06.113Z,19.70
2022-09-28T07:03:55.813Z,19.48
2022-09-28T07:06:51.823Z,19.32
2022-09-28T07:09:56.670Z,19.15
2022-09-28T07:12:53.487Z,19.01
2022-09-28T07:15:39.452Z,18.93
2022-09-28T07:18:14.254Z,18.92
2022-09-28T07:20:54.168Z,18.87
2022-09-28T07:23:49.987Z,18.77
2022-09-28T07:26:34.002Z,18.74
2022-09-28T07:29:18.201Z,18.89
2022-09-28T07:32:27.185Z,19.02
2022-09-28T07:35:26.556Z,19.15
2022-09-28T07:38:07.129Z,19.40
2022-09-28T07:40:59.722Z,19.75
2022-09-28T07:43:33.305Z,20.21
2022-09-28T07:46:11.137Z,20.62
2022-09-28T07:48:50.203Z,20.98
2022-09-28T07:51:35.167Z,21.26
2022-09-28T07:54:26.416Z,21.50
2022-09-28T07:57:27.784Z,21.62
2022-09-28T08:00:20.235Z,21.66
2022-09-28T08:02:53.708Z,21.57
2022-09-28T08:05:32.907Z,21.56
2022-09-28T08:08:06.560Z,21.55
2022-09-28T08:10:44.436Z,21.46
2022-09-28T08:13:56.574Z,21.30
2022-09-28T08:17:12.730Z,21.15
2022-09-28T08:20:17.925Z,21.08
2022-09-28T08:22:51.547Z,21.08
2022-09-28T08:25:25.614Z,21.03
2022-09-28T08:28:00.456Z,20.99
2022-09-28T08:30:35.967Z,20.94
2022-09-28T08:33:30.079Z,20.86
2022-09-28T08:36:24.817Z,20.78
2022-09-28T08:39:17.265Z,20.85
2022-09-28T08:42:41.939Z,20.83
2022-09-28T08:45:36.957Z,20.86
2022-09-28T08:49:01.401Z,20.82
2022-09-28T08:52:08.311Z,20.82
2022-09-28T08:55:07.682Z,20.87
2022-09-28T08:57:53.163Z,20.88
2022-09-28T09:00:37.355Z,20.87
2022-09-28T09:03:15.199Z,20.87
2022-09-28T09:06:29.424Z,20.91
2022-09-28T09:09:19.893Z,20.91
2022-09-28T09:12:01.319Z,20.93
2022-09-28T09:15:07.972Z,20.93
2022-09-28T09:17:56.844Z,20.91
2022-09-28T09:21:07.282Z,21.00
2022-09-28T09:23:57.465Z,21.02
2022-09-28T09:26:42.657Z,21.03
2022-09-28T09:29:50.739Z,21.06
2022-09-28T09:32:44.071Z,21.12
2022-09-28T09:35:32.299Z,21.06
2022-09-28T09:38:37.742Z,21.05
2022-09-28T09:41:51.635Z,21.27
2022-09-28T09:45:07.219Z,21.52
2022-09-28T09:48:24.405Z,21.71
2022-09-28T09:51:06.763Z,21.85
2022-09-28T09:53:49.695Z,21.97
2022-09-28T09:56:30.295Z,22.08
2022-09-28T09:59:19.743Z,22.13
2022-09-28T10:02:41.646Z,22.15
2022-09-28T10:05:30.541Z,22.15
2022-09-28T10:08:12.843Z,22.18
2022-09-28T10:11:08.399Z,22.21
2022-09-28T10:13:43.649Z,22.36
2022-09-28T10:16:38.952Z,22.46
2022-09-28T10:19:17.569Z,22.54
2022-09-28T10:22:00.712Z,22.60
2022-09-28T10:24:44.306Z,22.80
2022-09-28T10:27:25.418Z,22.90
2022-09-28T10:30:03.371Z,22.95
2022-09-28T10:32:45.143Z,22.98
2022-09-28T10:35:22.194Z,22.99
2022-09-28T10:38:05.701Z,23.02
2022-09-28T10:41:11.730Z,23.13
2022-09-28T10:44:11.634Z,23.26
2022-09-28T10:47:10.071Z,23.42
2022-09-28T10:49:48.022Z,23.65
2022-09-28T10:52:46.788Z,23.73
2022-09-28T10:55:39.585Z,23.82
2022-09-28T10:58:38.476Z,23.85
2022-09-28T11:01:20.682Z,24.00
2022-09-28T11:03:59.078Z,24.15
2022-09-28T11:06:43.103Z,24.32
2022-09-28T11:09:46.563Z,24.50
2022-09-28T11:12:27.764Z,24.63
2022-09-28T11:15:08.254Z,24.74
2022-09-28T11:17:43.348Z,24.77
2022-09-28T11:20:28.756Z,24.76
2022-09-28T11:23:23.020Z,24.69
2022-09-28T11:26:18.973Z,24.47
2022-09-28T11:28:55.798Z,24.29
2022-09-28T11:31:40.308Z,24.10
2022-09-28T11:34:47.787Z,24.01
2022-09-28T11:37:39.328Z,23.95
2022-09-28T11:40:32.563Z,24.00
2022-09-28T11:43:20.487Z,24.04
2022-09-28T11:45:56.079Z,24.06
2022-09-28T11:48:51.381Z,24.19
2022-09-28T11:51:33.839Z,24.34
2022-09-28T11:54:27.216Z,24.56
2022-09-28T11:57:05.914Z,24.73
2022-09-28T11:59:53.464Z,24.91
2022-09-28T12:02:36.005Z,25.07
2022-09-28T12:05:21.751Z,25.21
2022-09-28T12:08:06.193Z,25.34
2022-09-28T12:11:16.176Z,25.41
2022-09-28T12:14:25.437Z,25.60
2022-09-28T12:17:23.559Z,25.78
2022-09-28T12:20:06.022Z,25.87
2022-09-28T12:22:46.758Z,25.87
2022-09-28T12:25:25.214Z,25.93
2022-09-28T12:28:10.136Z,25.92
2022-09-28T12:30:45.863Z,26.05
2022-09-28T12:33:18.914Z,26.07
2022-09-28T12:36:31.542Z,26.11
2022-09-28T12:39:46.923Z,26.07
2022-09-28T12:42:44.668Z,26.03
2022-09-28T12:46:10.426Z,25.87
2022-09-28T12:50:07.212Z,25.82
2022-09-28T12:52:31.668Z,25.84
2022-09-28T12:55:22.552Z,25.78
2022-09-28T12:58:37.973Z,25.70
2022-09-28T13:01:33.832Z,25.69
2022-09-28T13:04:29.793Z,25.70
2022-09-28T13:07:25.812Z,25.61
2022-09-28T13:10:11.568Z,25.45
2022-09-28T13:13:02.133Z,25.45
2022-09-28T13:15:56.292Z,25.41
2022-09-28T13:18:49.307Z,25.36
2022-09-28T13:21:39.146Z,25.30
2022-09-28T13:24:31.646Z,25.21
2022-09-28T13:27:32.138Z,25.04
2022-09-28T13:30:08.644Z,24.91
2022-09-28T13:32:43.865Z,24.80
2022-09-28T13:35:20.942Z,24.66
2022-09-28T13:38:21.862Z,24.58
2022-09-28T13:41:10.389Z,24.55
2022-09-28T13:44:17.113Z,24.52
2022-09-28T13:47:21.739Z,24.43
2022-09-28T13:50:26.042Z,24.57
2022-09-28T13:53:27.507Z,24.55
2022-09-28T13:56:25.879Z,24.59
2022-09-28T13:59:16.858Z,24.54
2022-09-28T14:02:06.830Z,24.56
2022-09-28T14:05:00.672Z,24.51
2022-09-28T14:07:39.423Z,24.53
2022-09-28T14:10:21.435Z,24.48
2022-09-28T14:12:53.851Z,24.43
2022-09-28T14:15:32.564Z,24.33
2022-09-28T14:18:12.489Z,24.33
2022-09-28T14:21:08.944Z,24.30
2022-09-28T14:24:14.338Z,24.29
2022-09-28T14:26:56.747Z,24.24
2022-09-28T14:29:40.817Z,24.23
2022-09-28T14:32:13.409Z,24.24
2022-09-28T14:34:50.053Z,24.26
2022-09-28T14:37:55.228Z,24.26
2022-09-28T14:41:10.831Z,24.36
2022-09-28T14:43:49.894Z,24.26
2022-09-28T14:46:31.900Z,24.19
2022-09-28T14:49:29.044Z,24.23
2022-09-28T14:52:05.205Z,24.17
2022-09-28T14:55:03.811Z,24.09
2022-09-28T14:57:37.700Z,23.99
2022-09-28T15:00:32.967Z,23.86
2022-09-28T15:03:12.132Z,23.63
2022-09-28T15:05:49.945Z,23.44
2022-09-28T15:08:25.487Z,23.22
2022-09-28T15:11:02.530Z,23.08
2022-09-28T15:13:35.759Z,22.87
2022-09-28T15:16:15.206Z,22.76
2022-09-28T15:19:00.224Z,22.50
2022-09-28T15:21:41.642Z,22.40
2022-09-28T15:24:33.197Z,22.22
2022-09-28T15:27:19.433Z,22.10
2022-09-28T15:30:19.800Z,21.98
2022-09-28T15:32:55.300Z,21.86
2022-09-28T15:35:30.570Z,21.72
2022-09-28T15:38:04.904Z,21.61
2022-09-28T15:40:41.373Z,21.47
2022-09-28T15:43:34.817Z,21.37
2022-09-28T15:46:23.324Z,21.20
2022-09-28T15:49:00.173Z,21.14
2022-09-28T15:51:36.274Z,21.02
2022-09-28T15:54:24.527Z,20.85
2022-09-28T15:57:02.962Z,20.76
2022-09-28T15:59:38.867Z,20.63
2022-09-28T16:02:24.801Z,20.50
2022-09-28T16:05:02.671Z,20.38
2022-09-28T16:07:43.845Z,20.25
2022-09-28T16:10:17.444Z,20.13
2022-09-28T16:12:57.158Z,19.97
2022-09-28T16:15:38.910Z,19.88
2022-09-28T16:18:21.939Z,19.76
2022-09-28T16:21:07.747Z,19.62
2022-09-28T16:23:42.083Z,19.45
2022-09-28T16:26:31.878Z,19.36
2022-09-28T16:29:27.978Z,19.25
2022-09-28T16:32:23.801Z,19.20
2022-09-28T16:35:20.557Z,19.09
2022-09-28T16:38:09.651Z,18.92
2022-09-28T16:40:54.535Z,18.83
2022-09-28T16:43:37.059Z,18.77
2022-09-28T16:46:16.955Z,18.67
2022-09-28T16:48:56.880Z,18.65
2022-09-28T16:51:30.715Z,18.49
2022-09-28T16:54:42.976Z,18.51
2022-09-28T16:57:16.991Z,18.41
2022-09-28T16:59:50.229Z,18.34
2022-09-28T17:02:46.765Z,18.17
2022-09-28T17:05:24.061Z,18.19
2022-09-28T17:08:04.804Z,18.22
2022-09-28T17:11:13.064Z,18.17
2022-09-28T17:13:44.688Z,18.14
2022-09-28T17:16:42.675Z,18.05
2022-09-28T17:19:29.688Z,18.02
2022-09-28T17:22:04.247Z,17.93
2022-09-28T17:24:38.106Z,17.88
2022-09-28T17:27:17.834Z,17.88
2022-09-28T17:29:55.154Z,17.82
2022-09-28T17:32:29.289Z,17.74
2022-09-28T17:35:22.996Z,17.58
2022-09-28T17:37:57.852Z,17.34
2022-09-28T17:43:23.278Z,17.13
2022-09-28T17:45:57.003Z,17.08
2022-09-28T17:48:31.627Z,17.11
2022-09-28T17:51:06.428Z,17.16
2022-09-28T17:53:40.814Z,17.23
2022-09-28T17:56:14.433Z,17.28
2022-09-28T17:58:48.717Z,17.30
2022-09-28T18:01:22.561Z,17.23
2022-09-28T18:03:55.573Z,17.18
2022-09-28T18:06:28.644Z,17.11
2022-09-28T18:09:03.289Z,17.10
2022-09-28T18:11:43.300Z,17.06
2022-09-28T18:14:16.874Z,16.94
2022-09-28T18:16:51.909Z,16.85
2022-09-28T18:19:28.596Z,16.81
2022-09-28T18:22:06.297Z,16.70
2022-09-28T18:24:39.458Z,16.73
2022-09-28T18:27:12.514Z,16.72
2022-09-28T18:29:48.469Z,16.71
2022-09-28T18:32:21.464Z,16.67
2022-09-28T18:35:22.919Z,16.69
2022-09-28T18:37:56.441Z,16.74
2022-09-28T18:40:30.582Z,16.74
2022-09-28T18:43:03.670Z,16.74
2022-09-28T18:45:38.811Z,16.77
2022-09-28T18:48:11.933Z,16.81
2022-09-28T18:50:46.126Z,16.77
2022-09-28T18:53:20.433Z,16.67
2022-09-28T18:55:53.507Z,16.62
2022-09-28T18:58:27.667Z,16.56
2022-09-28T19:01:28.027Z,16.50
2022-09-28T19:03:56.322Z,16.49
2022-09-28T19:06:30.408Z,16.47
2022-09-28T19:09:04.385Z,16.50
2022-09-28T19:11:38.106Z,16.46
2022-09-28T19:14:15.809Z,16.44
2022-09-28T19:16:48.734Z,16.42
2022-09-28T19:19:23.042Z,16.37
2022-09-28T19:21:58.208Z,16.30
2022-09-28T19:24:31.469Z,16.29
2022-09-28T19:27:04.683Z,16.27
2022-09-28T19:29:37.483Z,16.27
2022-09-28T19:32:12.772Z,16.25
2022-09-28T19:34:45.821Z,16.33
2022-09-28T19:37:18.714Z,16.37
2022-09-28T19:39:51.446Z,16.42
2022-09-28T19:42:25.789Z,16.47
2022-09-28T19:44:58.591Z,16.54
2022-09-28T19:47:32.264Z,16.61
2022-09-28T19:50:05.941Z,16.69
2022-09-28T19:52:38.607Z,16.75
2022-09-28T19:55:39.143Z,16.80
2022-09-28T19:58:12.714Z,16.81
2022-09-28T20:00:45.665Z,16.81
2022-09-28T20:03:19.007Z,16.82
2022-09-28T20:05:58.076Z,16.79
2022-09-28T20:08:34.165Z,16.71
2022-09-28T20:11:10.019Z,16.66
2022-09-28T20:13:42.882Z,16.60
2022-09-28T20:16:18.020Z,16.65
2022-09-28T20:18:52.151Z,16.67
2022-09-28T20:21:26.955Z,16.68
2022-09-28T20:23:59.889Z,16.67
2022-09-28T20:26:37.746Z,16.64
2022-09-28T20:29:11.030Z,16.59
2022-09-28T20:31:44.831Z,16.59
2022-09-28T20:34:17.613Z,16.59
2022-09-28T20:36:50.163Z,16.58
2022-09-28T20:39:23.052Z,16.54
2022-09-28T20:41:56.622Z,16.49
2022-09-28T20:44:29.806Z,16.45
2022-09-28T20:47:03.890Z,16.39
2022-09-28T20:49:37.246Z,16.33
2022-09-28T20:52:11.505Z,16.27
2022-09-28T20:54:44.409Z,16.21
2022-09-28T20:57:20.805Z,16.27
2022-09-28T20:59:54.847Z,16.23
2022-09-28T21:02:27.474Z,16.29
2022-09-28T21:05:00.550Z,16.26
2022-09-28T21:07:33.416Z,16.29
2022-09-28T21:10:06.906Z,16.38
2022-09-28T21:12:40.316Z,16.37
2022-09-28T21:15:13.701Z,16.47
2022-09-28T21:17:47.192Z,16.51
2022-09-28T21:20:20.188Z,16.54
2022-09-28T21:22:54.787Z,16.56
2022-09-28T21:25:30.148Z,16.56
2022-09-28T21:28:07.059Z,16.54
2022-09-28T21:30:39.838Z,16.51
2022-09-28T21:33:12.821Z,16.51
2022-09-28T21:35:45.795Z,16.54
2022-09-28T21:38:18.665Z,16.38
2022-09-28T21:40:56.625Z,16.32
2022-09-28T21:43:31.865Z,16.36
2022-09-28T21:46:04.991Z,16.31
2022-09-28T21:48:37.827Z,16.25
2022-09-28T21:51:14.837Z,16.20
2022-09-28T21:53:50.192Z,16.09
2022-09-28T21:56:23.754Z,16.00
2022-09-28T21:58:56.875Z,15.89
2022-09-28T22:01:29.956Z,15.90
2022-09-28T22:04:06.037Z,15.92
2022-09-28T22:06:39.307Z,15.93
2022-09-28T22:09:12.651Z,15.96
2022-09-28T22:11:46.136Z,15.92
2022-09-28T22:14:19.022Z,15.98
2022-09-28T22:16:52.099Z,15.91
2022-09-28T22:19:25.238Z,15.91
2022-09-28T22:22:02.319Z,15.90
2022-09-28T22:24:35.334Z,15.85
2022-09-28T22:27:11.345Z,15.86
2022-09-28T22:29:45.625Z,15.85
2022-09-28T22:32:19.118Z,15.87
2022-09-28T22:34:52.230Z,15.90
2022-09-28T22:37:28.710Z,15.88
2022-09-28T22:40:01.951Z,15.88
2022-09-28T22:42:35.199Z,15.89
2022-09-28T22:45:09.871Z,15.91
2022-09-28T22:47:43.487Z,15.96
2022-09-28T22:50:16.761Z,15.95
2022-09-28T22:52:51.661Z,15.87
2022-09-28T22:55:24.559Z,15.91
2022-09-28T22:57:57.354Z,15.86
2022-09-28T23:00:31.186Z,15.87
2022-09-28T23:03:05.228Z,15.81
2022-09-28T23:05:38.656Z,15.73
2022-09-28T23:08:11.284Z,15.58
2022-09-28T23:10:45.107Z,15.54
2022-09-28T23:13:18.263Z,15.43
2022-09-28T23:16:08.267Z,15.34
2022-09-28T23:18:42.664Z,15.23
2022-09-28T23:21:16.900Z,15.13
2022-09-28T23:24:01.795Z,15.05
2022-09-28T23:26:37.487Z,14.92
2022-09-28T23:29:12.822Z,14.86
2022-09-28T23:31:46.051Z,14.96
2022-09-28T23:34:19.287Z,15.00
2022-09-28T23:36:55.034Z,15.07
2022-09-28T23:39:31.225Z,15.14
2022-09-28T23:42:04.381Z,15.20
2022-09-28T23:44:37.730Z,15.22
2022-09-28T23:47:10.779Z,15.24
2022-09-28T23:49:44.052Z,15.28
2022-09-28T23:52:17.264Z,15.30
2022-09-28T23:54:50.305Z,15.34
2022-09-28T23:57:23.536Z,15.34
2022-09-28T23:59:56.277Z,15.36
